createdAt,value
2022-09-18T00:01:33.985Z,100733.38
2022-09-18T00:04:01.502Z,100731.47
2022-09-18T00:06:29.819Z,100736.06
2022-09-18T00:08:58.052Z,100733.91
2022-09-18T00:11:25.809Z,100737.38
2022-09-18T00:13:52.494Z,100727.69
2022-09-18T00:16:20.651Z,100730.63
2022-09-18T00:18:48.009Z,100730.63
2022-09-18T00:21:16.184Z,100736.03
2022-09-18T00:23:43.063Z,100733.88
2022-09-18T00:26:10.384Z,100730.91
2022-09-18T00:28:36.908Z,100727.94
2022-09-18T00:31:07.889Z,100737.41
2022-09-18T00:33:35.576Z,100730.16
2022-09-18T00:36:02.742Z,100733.09
2022-09-18T00:38:29.645Z,100738.47
2022-09-18T00:40:56.124Z,100728.50
2022-09-18T00:43:24.086Z,100727.44
2022-09-18T00:46:05.601Z,100732.56
2022-09-18T00:48:40.469Z,100730.69
2022-09-18T00:51:06.965Z,100728.50
2022-09-18T00:53:35.991Z,100728.81
2022-09-18T00:56:03.966Z,100723.09
2022-09-18T00:58:30.489Z,100723.09
2022-09-18T01:00:57.013Z,100719.88
2022-09-18T01:03:23.522Z,100722.06
2022-09-18T01:05:52.873Z,100719.13
2022-09-18T01:08:31.666Z,100720.16
2022-09-18T01:11:17.989Z,100723.41
2022-09-18T01:13:58.951Z,100731.72
2022-09-18T01:16:28.634Z,100725.25
2022-09-18T01:19:01.193Z,100725.53
2022-09-18T01:21:38.524Z,100722.00
2022-09-18T01:24:07.766Z,100727.72
2022-09-18T01:26:34.172Z,100727.44
2022-09-18T01:29:05.292Z,100727.94
2022-09-18T01:31:34.626Z,100724.72
2022-09-18T01:34:03.950Z,100722.53
2022-09-18T01:36:34.485Z,100728.22
2022-09-18T01:39:12.939Z,100731.19
2022-09-18T01:41:42.151Z,100736.03
2022-09-18T01:44:13.489Z,100732.78
2022-09-18T01:46:43.347Z,100739.22
2022-09-18T01:49:16.444Z,100732.25
2022-09-18T01:51:54.670Z,100731.44
2022-09-18T01:54:27.138Z,100731.19
2022-09-18T01:57:04.483Z,100719.06
2022-09-18T01:59:41.355Z,100731.69
2022-09-18T02:02:33.940Z,100721.47
2022-09-18T02:05:02.703Z,100731.19
2022-09-18T02:07:45.476Z,100731.19
2022-09-18T02:10:12.299Z,100723.63
2022-09-18T02:12:42.893Z,100724.97
2022-09-18T02:15:11.042Z,100720.94
2022-09-18T02:17:49.776Z,100722.53
2022-09-18T02:20:20.647Z,100708.56
2022-09-18T02:22:48.621Z,100705.88
2022-09-18T02:25:17.232Z,100711.28
2022-09-18T02:27:43.889Z,100712.31
2022-09-18T02:30:10.806Z,100719.31
2022-09-18T02:32:39.061Z,100714.47
2022-09-18T02:35:07.389Z,100713.69
2022-09-18T02:37:57.076Z,100702.13
2022-09-18T02:40:31.399Z,100712.03
2022-09-18T02:43:00.367Z,100709.66
2022-09-18T02:45:49.946Z,100709.66
2022-09-18T02:48:35.119Z,100704.81
2022-09-18T02:51:07.767Z,100709.66
2022-09-18T02:53:41.942Z,100711.78
2022-09-18T02:56:14.364Z,100703.97
2022-09-18T02:58:50.185Z,100705.31
2022-09-18T03:01:17.560Z,100705.88
2022-09-18T03:03:44.099Z,100710.72
2022-09-18T03:06:12.554Z,100709.09
2022-09-18T03:08:39.938Z,100709.66
2022-09-18T03:11:06.446Z,100723.63
2022-09-18T03:13:33.286Z,100719.88
2022-09-18T03:15:59.810Z,100721.72
2022-09-18T03:18:26.503Z,100721.47
2022-09-18T03:20:55.456Z,100705.88
2022-09-18T03:23:23.630Z,100713.41
2022-09-18T03:25:52.950Z,100705.88
2022-09-18T03:28:19.492Z,100706.41
2022-09-18T03:30:46.019Z,100703.16
2022-09-18T03:33:13.656Z,100708.53
2022-09-18T03:35:42.639Z,100710.69
2022-09-18T03:38:09.385Z,100701.81
2022-09-18T03:40:36.008Z,100702.63
2022-09-18T03:43:05.293Z,100697.22
2022-09-18T03:45:31.838Z,100706.91
2022-09-18T03:47:59.450Z,100697.78
2022-09-18T03:50:27.508Z,100699.38
2022-09-18T03:52:53.972Z,100709.88
2022-09-18T03:55:43.220Z,100717.97
2022-09-18T03:58:28.389Z,100706.41
2022-09-18T04:01:18.386Z,100710.69
2022-09-18T04:04:07.442Z,100711.47
2022-09-18T04:07:08.902Z,100705.84
2022-09-18T04:09:58.628Z,100717.16
2022-09-18T04:12:25.142Z,100717.16
2022-09-18T04:15:11.162Z,100703.41
2022-09-18T04:17:37.616Z,100712.56
2022-09-18T04:20:05.201Z,100715.81
2022-09-18T04:22:31.694Z,100714.47
2022-09-18T04:24:58.232Z,100724.97
2022-09-18T04:27:24.715Z,100719.31
2022-09-18T04:29:51.660Z,100722.56
2022-09-18T04:32:19.007Z,100717.44
2022-09-18T04:34:46.020Z,100717.19
2022-09-18T04:37:12.624Z,100718.22
2022-09-18T04:39:39.123Z,100716.63
2022-09-18T04:42:05.627Z,100722.56
2022-09-18T04:44:32.471Z,100723.09
2022-09-18T04:46:59.624Z,100717.44
2022-09-18T04:49:26.121Z,100715.03
2022-09-18T04:51:52.604Z,100712.88
2022-09-18T04:54:19.050Z,100706.66
2022-09-18T04:56:45.729Z,100716.63
2022-09-18T04:59:12.772Z,100715.03
2022-09-18T05:01:43.547Z,100709.34
2022-09-18T05:04:11.902Z,100716.09
2022-09-18T05:06:50.660Z,100712.31
2022-09-18T05:09:18.211Z,100709.06
2022-09-18T05:11:44.962Z,100716.88
2022-09-18T05:14:11.625Z,100715.25
2022-09-18T05:16:40.413Z,100718.25
2022-09-18T05:19:27.086Z,100718.25
2022-09-18T05:22:00.114Z,100729.00
2022-09-18T05:24:26.696Z,100719.03
2022-09-18T05:26:53.203Z,100729.53
2022-09-18T05:29:21.346Z,100734.91
2022-09-18T05:31:49.955Z,100727.38
2022-09-18T05:34:16.494Z,100732.75
2022-09-18T05:36:43.113Z,100728.72
2022-09-18T05:39:12.121Z,100730.88
2022-09-18T05:41:41.391Z,100730.88
2022-09-18T05:44:07.771Z,100729.53
2022-09-18T05:46:34.297Z,100730.09
2022-09-18T05:49:02.480Z,100734.38
2022-09-18T05:51:28.974Z,100740.84
2022-09-18T05:53:56.371Z,100733.03
2022-09-18T05:56:33.267Z,100737.63
2022-09-18T05:59:00.510Z,100733.56
2022-09-18T06:01:29.831Z,100735.97
2022-09-18T06:04:28.419Z,100743.00
2022-09-18T06:07:01.485Z,100745.16
2022-09-18T06:09:28.373Z,100740.88
2022-09-18T06:11:54.850Z,100744.34
2022-09-18T06:14:22.271Z,100746.25
2022-09-18T06:16:48.993Z,100746.56
2022-09-18T06:19:16.255Z,100747.91
2022-09-18T06:21:45.292Z,100746.56
2022-09-18T06:24:15.527Z,100749.50
2022-09-18T06:27:04.976Z,100747.09
2022-09-18T06:29:31.416Z,100753.03
2022-09-18T06:32:13.706Z,100750.59
2022-09-18T06:34:40.484Z,100744.94
2022-09-18T06:37:10.045Z,100742.53
2022-09-18T06:39:56.905Z,100742.47
2022-09-18T06:42:45.803Z,100746.78
2022-09-18T06:45:27.489Z,100744.59
2022-09-18T06:47:55.226Z,100739.75
2022-09-18T06:50:24.647Z,100747.56
2022-09-18T06:52:51.151Z,100745.13
2022-09-18T06:55:18.335Z,100751.03
2022-09-18T06:57:55.320Z,100751.28
2022-09-18T07:00:22.159Z,100750.47
2022-09-18T07:02:57.913Z,100751.84
2022-09-18T07:05:53.404Z,100746.16
2022-09-18T07:08:34.642Z,100743.72
2022-09-18T07:11:11.488Z,100754.72
2022-09-18T07:13:38.119Z,100752.00
2022-09-18T07:16:05.978Z,100748.69
2022-09-18T07:18:32.585Z,100753.53
2022-09-18T07:20:59.724Z,100755.72
2022-09-18T07:23:38.544Z,100754.69
2022-09-18T07:26:05.137Z,100755.75
2022-09-18T07:28:33.821Z,100760.09
2022-09-18T07:31:09.357Z,100759.25
2022-09-18T07:33:37.159Z,100759.78
2022-09-18T07:36:04.688Z,100764.91
2022-09-18T07:38:34.678Z,100768.13
2022-09-18T07:41:02.410Z,100772.38
2022-09-18T07:43:30.965Z,100770.16
2022-09-18T07:45:58.979Z,100775.53
2022-09-18T07:48:27.816Z,100771.47
2022-09-18T07:50:58.387Z,100770.25
2022-09-18T07:53:25.345Z,100767.22
2022-09-18T07:55:55.827Z,100760.66
2022-09-18T07:58:24.030Z,100763.88
2022-09-18T08:01:16.658Z,100770.25
2022-09-18T08:03:55.769Z,100769.75
2022-09-18T08:06:34.421Z,100768.19
2022-09-18T08:09:21.156Z,100772.88
2022-09-18T08:11:58.879Z,100766.50
2022-09-18T08:14:37.415Z,100771.06
2022-09-18T08:17:23.019Z,100772.16
2022-09-18T08:20:15.753Z,100771.34
2022-09-18T08:22:44.563Z,100775.88
2022-09-18T08:25:12.273Z,100780.56
2022-09-18T08:27:42.112Z,100774.06
2022-09-18T08:30:09.812Z,100768.97
2022-09-18T08:32:39.344Z,100771.38
2022-09-18T08:35:07.167Z,100768.59
2022-09-18T08:37:34.208Z,100762.16
2022-09-18T08:40:21.547Z,100767.34
2022-09-18T08:43:09.431Z,100760.47
2022-09-18T08:45:45.015Z,100778.31
2022-09-18T08:48:15.603Z,100761.94
2022-09-18T08:50:46.819Z,100760.09
2022-09-18T08:53:16.412Z,100765.53
2022-09-18T08:56:22.012Z,100762.81
2022-09-18T08:59:19.768Z,100768.50
2022-09-18T09:01:51.936Z,100767.31
2022-09-18T09:04:23.116Z,100761.84
2022-09-18T09:06:49.639Z,100771.50
2022-09-18T09:09:22.659Z,100776.06
2022-09-18T09:11:58.659Z,100769.69
2022-09-18T09:14:52.801Z,100768.66
2022-09-18T09:17:24.827Z,100766.44
2022-09-18T09:20:02.694Z,100767.09
2022-09-18T09:22:53.394Z,100765.59
2022-09-18T09:25:23.724Z,100755.66
2022-09-18T09:28:23.437Z,100770.75
2022-09-18T09:31:01.803Z,100762.31
2022-09-18T09:34:01.459Z,100759.56
2022-09-18T09:36:49.069Z,100761.31
2022-09-18T09:39:20.951Z,100753.66
2022-09-18T09:42:03.507Z,100759.66
2022-09-18T09:44:38.266Z,100758.91
2022-09-18T09:47:19.609Z,100749.88
2022-09-18T09:49:52.439Z,100761.09
2022-09-18T09:52:24.054Z,100748.75
2022-09-18T09:55:21.318Z,100755.63
2022-09-18T09:57:50.411Z,100749.72
2022-09-18T10:00:19.321Z,100751.72
2022-09-18T10:03:04.300Z,100753.09
2022-09-18T10:05:43.863Z,100754.59
2022-09-18T10:08:29.564Z,100751.03
2022-09-18T10:11:01.004Z,100740.19
2022-09-18T10:13:40.326Z,100749.44
2022-09-18T10:16:11.256Z,100739.56
2022-09-18T10:18:40.340Z,100748.31
2022-09-18T10:21:14.935Z,100750.38
2022-09-18T10:23:42.865Z,100748.94
2022-09-18T10:26:15.008Z,100748.66
2022-09-18T10:28:41.478Z,100745.09
2022-09-18T10:31:12.698Z,100742.75
2022-09-18T10:33:46.719Z,100741.72
2022-09-18T10:36:23.582Z,100746.91
2022-09-18T10:38:50.389Z,100737.75
2022-09-18T10:41:26.978Z,100732.97
2022-09-18T10:44:05.793Z,100745.03
2022-09-18T10:46:34.200Z,100723.69
2022-09-18T10:49:22.964Z,100721.72
2022-09-18T10:52:09.389Z,100726.81
2022-09-18T10:54:36.442Z,100730.94
2022-09-18T10:57:25.780Z,100728.88
2022-09-18T10:59:53.555Z,100726.66
2022-09-18T11:02:21.872Z,100727.47
2022-09-18T11:04:49.441Z,100724.38
2022-09-18T11:07:22.379Z,100723.78
2022-09-18T11:09:52.300Z,100713.28
2022-09-18T11:12:24.265Z,100722.38
2022-09-18T11:14:58.862Z,100714.63
2022-09-18T11:17:27.676Z,100711.41
2022-09-18T11:19:56.450Z,100708.03
2022-09-18T11:22:33.863Z,100715.16
2022-09-18T11:25:21.761Z,100700.56
2022-09-18T11:27:52.185Z,100704.03
2022-09-18T11:30:22.230Z,100705.53
2022-09-18T11:32:52.462Z,100704.78
2022-09-18T11:35:21.006Z,100702.13
2022-09-18T11:37:58.335Z,100688.44
2022-09-18T11:40:29.091Z,100684.59
2022-09-18T11:42:55.979Z,100673.41
2022-09-18T11:45:23.688Z,100678.47
2022-09-18T11:47:57.338Z,100676.47
2022-09-18T11:50:26.104Z,100679.78
2022-09-18T11:53:00.383Z,100682.53
2022-09-18T11:55:32.813Z,100679.63
2022-09-18T11:58:02.850Z,100686.50
2022-09-18T12:00:33.863Z,100684.97
2022-09-18T12:03:08.338Z,100676.03
2022-09-18T12:05:38.265Z,100679.84
2022-09-18T12:08:08.073Z,100673.06
2022-09-18T12:10:38.073Z,100668.94
2022-09-18T12:13:13.689Z,100667.28
2022-09-18T12:15:42.749Z,100670.41
2022-09-18T12:18:13.064Z,100674.38
2022-09-18T12:20:44.182Z,100677.00
2022-09-18T12:23:22.109Z,100675.91
2022-09-18T12:26:09.797Z,100663.84
2022-09-18T12:29:08.415Z,100674.50
2022-09-18T12:31:45.963Z,100664.75
2022-09-18T12:34:21.568Z,100665.19
2022-09-18T12:36:47.980Z,100667.63
2022-09-18T12:39:38.829Z,100656.78
2022-09-18T12:42:14.602Z,100661.13
2022-09-18T12:44:47.166Z,100650.28
2022-09-18T12:47:21.700Z,100649.44
2022-09-18T12:50:01.897Z,100652.22
2022-09-18T12:52:31.137Z,100643.09
2022-09-18T12:55:16.427Z,100638.78
2022-09-18T12:57:45.952Z,100641.72
2022-09-18T13:00:16.283Z,100640.25
2022-09-18T13:02:50.439Z,100643.06
2022-09-18T13:05:26.882Z,100636.03
2022-09-18T13:08:19.884Z,100624.63
2022-09-18T13:10:47.263Z,100627.63
2022-09-18T13:13:22.781Z,100622.94
2022-09-18T13:15:52.281Z,100618.44
2022-09-18T13:18:26.724Z,100623.81
2022-09-18T13:20:54.260Z,100625.91
2022-09-18T13:23:23.242Z,100616.69
2022-09-18T13:25:51.699Z,100615.28
2022-09-18T13:28:19.539Z,100612.19
2022-09-18T13:30:46.875Z,100610.69
2022-09-18T13:33:24.328Z,100613.84
2022-09-18T13:36:00.286Z,100619.63
2022-09-18T13:38:30.255Z,100617.00
2022-09-18T13:41:00.293Z,100611.00
2022-09-18T13:43:31.549Z,100607.38
2022-09-18T13:46:06.076Z,100610.59
2022-09-18T13:48:33.412Z,100616.50
2022-09-18T13:51:04.579Z,100617.59
2022-09-18T13:53:33.917Z,100609.78
2022-09-18T13:56:00.680Z,100604.66
2022-09-18T13:58:36.807Z,100613.78
2022-09-18T14:01:04.824Z,100598.59
2022-09-18T14:03:35.849Z,100608.81
2022-09-18T14:06:21.417Z,100602.97
2022-09-18T14:08:47.945Z,100605.91
2022-09-18T14:11:22.603Z,100601.13
2022-09-18T14:13:53.904Z,100597.31
2022-09-18T14:16:20.533Z,100591.38
2022-09-18T14:18:47.074Z,100591.47
2022-09-18T14:21:18.483Z,100588.66
2022-09-18T14:23:46.143Z,100589.00
2022-09-18T14:26:37.078Z,100586.47
2022-09-18T14:29:03.567Z,100594.59
2022-09-18T14:31:36.544Z,100590.25
2022-09-18T14:34:05.517Z,100581.63
2022-09-18T14:36:42.688Z,100577.59
2022-09-18T14:39:29.722Z,100580.56
2022-09-18T14:42:01.795Z,100574.03
2022-09-18T14:44:29.236Z,100576.56
2022-09-18T14:47:00.223Z,100575.78
2022-09-18T14:49:28.395Z,100584.09
2022-09-18T14:52:03.876Z,100580.28
2022-09-18T14:54:31.364Z,100575.16
2022-09-18T14:57:01.113Z,100567.66
2022-09-18T14:59:29.158Z,100568.81
2022-09-18T15:02:31.463Z,100566.78
2022-09-18T15:04:59.997Z,100559.22
2022-09-18T15:07:26.955Z,100564.31
2022-09-18T15:09:55.208Z,100553.47
2022-09-18T15:12:23.884Z,100556.19
2022-09-18T15:14:50.323Z,100545.06
2022-09-18T15:17:18.481Z,100552.16
2022-09-18T15:19:55.245Z,100547.34
2022-09-18T15:22:22.832Z,100551.22
2022-09-18T15:24:49.575Z,100548.59
2022-09-18T15:27:16.691Z,100548.59
2022-09-18T15:29:46.355Z,100538.84
2022-09-18T15:32:19.672Z,100542.06
2022-09-18T15:34:48.258Z,100541.34
2022-09-18T15:37:19.081Z,100542.16
2022-09-18T15:39:47.477Z,100535.63
2022-09-18T15:42:26.302Z,100546.47
2022-09-18T15:44:55.991Z,100538.72
2022-09-18T15:47:25.612Z,100532.72
2022-09-18T15:49:53.298Z,100526.50
2022-09-18T15:52:38.384Z,100529.72
2022-09-18T15:55:11.170Z,100528.13
2022-09-18T15:57:37.783Z,100530.38
2022-09-18T16:00:06.474Z,100537.47
2022-09-18T16:02:39.270Z,100528.28
2022-09-18T16:05:09.839Z,100520.44
2022-09-18T16:07:39.298Z,100530.50
2022-09-18T16:10:32.027Z,100531.63
2022-09-18T16:13:00.737Z,100528.41
2022-09-18T16:15:27.551Z,100533.81
2022-09-18T16:17:56.426Z,100523.56
2022-09-18T16:20:29.995Z,100525.97
2022-09-18T16:23:13.687Z,100536.00
2022-09-18T16:25:42.040Z,100524.66
2022-09-18T16:28:25.407Z,100522.03
2022-09-18T16:30:52.219Z,100518.88
2022-09-18T16:33:29.095Z,100522.19
2022-09-18T16:36:03.947Z,100515.22
2022-09-18T16:38:30.863Z,100513.59
2022-09-18T16:40:58.265Z,100509.81
2022-09-18T16:43:25.059Z,100502.28
2022-09-18T16:45:51.694Z,100506.72
2022-09-18T16:48:18.819Z,100497.84
2022-09-18T16:50:45.472Z,100501.09
2022-09-18T16:53:11.947Z,100507.28
2022-09-18T16:55:40.696Z,100504.03
2022-09-18T16:58:07.930Z,100504.63
2022-09-18T17:00:36.027Z,100506.03
2022-09-18T17:03:02.795Z,100504.16
2022-09-18T17:05:29.341Z,100502.56
2022-09-18T17:07:55.917Z,100500.38
2022-09-18T17:10:22.452Z,100493.34
2022-09-18T17:12:48.944Z,100499.28
2022-09-18T17:15:15.849Z,100496.00
2022-09-18T17:17:42.718Z,100504.16
2022-09-18T17:20:09.705Z,100510.94
2022-09-18T17:22:36.272Z,100507.53
2022-09-18T17:25:02.842Z,100509.69
2022-09-18T17:27:29.877Z,100507.28
2022-09-18T17:29:56.422Z,100510.22
2022-09-18T17:32:23.709Z,100513.47
2022-09-18T17:34:50.184Z,100510.84
2022-09-18T17:37:16.796Z,100510.09
2022-09-18T17:39:43.425Z,100509.31
2022-09-18T17:42:10.120Z,100514.22
2022-09-18T17:44:37.092Z,100508.28
2022-09-18T17:47:03.875Z,100509.41
2022-09-18T17:49:31.510Z,100506.44
2022-09-18T17:51:58.113Z,100501.84
2022-09-18T17:54:24.727Z,100501.28
2022-09-18T17:56:51.212Z,100507.50
2022-09-18T17:59:18.299Z,100505.59
2022-09-18T18:01:47.032Z,100496.97
2022-09-18T18:04:13.891Z,100488.66
2022-09-18T18:06:40.589Z,100498.69
2022-09-18T18:09:09.898Z,100488.47
2022-09-18T18:11:37.748Z,100496.63
2022-09-18T18:14:05.445Z,100492.88
2022-09-18T18:16:33.433Z,100503.16
2022-09-18T18:19:01.942Z,100509.13
2022-09-18T18:21:29.184Z,100502.09
2022-09-18T18:23:56.916Z,100508.28
2022-09-18T18:26:23.881Z,100502.38
2022-09-18T18:28:50.541Z,100502.69
2022-09-18T18:31:17.942Z,100509.16
2022-09-18T18:33:45.265Z,100506.19
2022-09-18T18:36:18.116Z,100514.00
2022-09-18T18:38:45.571Z,100508.03
2022-09-18T18:41:12.772Z,100514.53
2022-09-18T18:43:42.551Z,100517.25
2022-09-18T18:46:12.703Z,100516.19
2022-09-18T18:48:40.062Z,100511.56
2022-09-18T18:51:08.568Z,100519.66
2022-09-18T18:53:38.567Z,100517.25
2022-09-18T18:56:10.852Z,100516.19
2022-09-18T18:58:37.684Z,100516.19
2022-09-18T19:01:08.825Z,100521.03
2022-09-18T19:03:39.825Z,100519.94
2022-09-18T19:06:06.909Z,100522.13
2022-09-18T19:08:35.607Z,100525.91
2022-09-18T19:11:03.781Z,100514.03
2022-09-18T19:13:30.718Z,100518.63
2022-09-18T19:15:57.532Z,100518.03
2022-09-18T19:18:24.128Z,100511.09
2022-09-18T19:20:53.517Z,100512.47
2022-09-18T19:23:20.942Z,100515.47
2022-09-18T19:25:48.694Z,100521.38
2022-09-18T19:28:16.366Z,100524.28
2022-09-18T19:30:43.033Z,100529.13
2022-09-18T19:33:16.095Z,100527.50
2022-09-18T19:35:42.784Z,100528.09
2022-09-18T19:38:09.879Z,100520.00
2022-09-18T19:40:38.195Z,100514.59
2022-09-18T19:43:12.297Z,100517.81
2022-09-18T19:45:39.956Z,100518.63
2022-09-18T19:48:08.350Z,100515.94
2022-09-18T19:50:39.029Z,100513.50
2022-09-18T19:53:06.206Z,100520.84
2022-09-18T19:55:34.599Z,100525.41
2022-09-18T19:58:01.540Z,100531.66
2022-09-18T20:00:28.313Z,100528.94
2022-09-18T20:02:57.759Z,100532.97
2022-09-18T20:05:27.038Z,100528.66
2022-09-18T20:07:53.717Z,100526.47
2022-09-18T20:10:20.373Z,100531.34
2022-09-18T20:12:47.740Z,100530.28
2022-09-18T20:15:14.443Z,100541.06
2022-09-18T20:17:41.220Z,100542.97
2022-09-18T20:20:08.982Z,100553.53
2022-09-18T20:22:40.006Z,100560.91
2022-09-18T20:25:08.096Z,100557.47
2022-09-18T20:27:39.022Z,100561.31
2022-09-18T20:30:07.336Z,100565.19
2022-09-18T20:32:34.113Z,100571.94
2022-09-18T20:35:00.576Z,100576.28
2022-09-18T20:37:32.854Z,100581.38
2022-09-18T20:40:01.654Z,100569.03
2022-09-18T20:42:33.467Z,100577.66
2022-09-18T20:45:04.566Z,100580.88
2022-09-18T20:47:34.835Z,100575.50
2022-09-18T20:50:06.660Z,100587.09
2022-09-18T20:52:37.786Z,100594.66
2022-09-18T20:55:08.753Z,100631.56
2022-09-18T20:57:39.082Z,100648.28
2022-09-18T21:00:07.361Z,100662.25
2022-09-18T21:02:35.385Z,100672.66
2022-09-18T21:05:03.249Z,100672.03
2022-09-18T21:07:31.561Z,100665.78
2022-09-18T21:09:58.809Z,100667.81
2022-09-18T21:12:25.766Z,100665.09
2022-09-18T21:14:52.430Z,100674.22
2022-09-18T21:17:18.859Z,100676.34
2022-09-18T21:19:48.588Z,100678.50
2022-09-18T21:22:16.979Z,100690.66
2022-09-18T21:24:44.269Z,100700.03
2022-09-18T21:27:10.856Z,100700.28
2022-09-18T21:29:40.715Z,100694.63
2022-09-18T21:32:08.198Z,100691.34
2022-09-18T21:34:34.885Z,100693.72
2022-09-18T21:37:02.501Z,100696.19
2022-09-18T21:39:29.804Z,100684.97
2022-09-18T21:41:57.468Z,100673.69
2022-09-18T21:44:27.213Z,100669.88
2022-09-18T21:46:55.047Z,100677.38
2022-09-18T21:49:22.898Z,100673.03
2022-09-18T21:51:50.017Z,100681.66
2022-09-18T21:54:18.253Z,100673.59
2022-09-18T21:56:48.315Z,100680.63
2022-09-18T21:59:14.824Z,100704.28
2022-09-18T22:01:42.798Z,100703.47
2022-09-18T22:04:10.320Z,100698.41
2022-09-18T22:06:44.151Z,100707.00
2022-09-18T22:09:15.616Z,100709.16
2022-09-18T22:11:42.918Z,100711.84
2022-09-18T22:14:11.001Z,100714.81
2022-09-18T22:16:38.072Z,100706.19
2022-09-18T22:19:06.169Z,100721.47
2022-09-18T22:21:34.190Z,100716.63
2022-09-18T22:24:06.450Z,100718.19
2022-09-18T22:26:37.579Z,100717.03
2022-09-18T22:29:08.352Z,100713.78
2022-09-18T22:31:35.642Z,100724.22
2022-09-18T22:34:02.343Z,100716.94
2022-09-18T22:36:29.062Z,100726.03
2022-09-18T22:38:55.736Z,100713.13
2022-09-18T22:41:22.742Z,100702.56
2022-09-18T22:43:53.279Z,100702.53
2022-09-18T22:46:19.973Z,100715.66
2022-09-18T22:48:46.895Z,100715.09
2022-09-18T22:51:14.579Z,100725.50
2022-09-18T22:53:45.739Z,100730.34
2022-09-18T22:56:13.300Z,100729.50
2022-09-18T22:58:41.308Z,100731.53
2022-09-18T23:01:12.951Z,100727.50
2022-09-18T23:03:39.964Z,100726.13
2022-09-18T23:06:07.281Z,100719.09
2022-09-18T23:08:34.913Z,100723.59
2022-09-18T23:11:02.731Z,100729.72
2022-09-18T23:13:29.290Z,100730.72
2022-09-18T23:15:55.734Z,100728.28
2022-09-18T23:18:22.200Z,100720.50
2022-09-18T23:20:48.694Z,100727.75
2022-09-18T23:23:15.230Z,100729.59
2022-09-18T23:25:41.701Z,100732.56
2022-09-18T23:28:08.206Z,100727.19
2022-09-18T23:30:36.343Z,100735.47
2022-09-18T23:33:02.808Z,100739.19
2022-09-18T23:35:29.218Z,100727.88
2022-09-18T23:37:56.360Z,100728.03
2022-09-18T23:40:22.827Z,100737.13
2022-09-18T23:42:49.299Z,100742.00
2022-09-18T23:45:15.690Z,100740.94
2022-09-18T23:47:42.123Z,100747.09
2022-09-18T23:50:08.587Z,100739.56
2022-09-18T23:52:35.125Z,100747.38
2022-09-18T23:55:01.727Z,100744.91
2022-09-18T23:57:28.337Z,100746.53
2022-09-18T23:59:58.594Z,100750.03
